Oudenburg, Belgium
Current Conditions -  °F | °C
As of 2:20 AM on Friday 28 Nov 2014 (Local Time) from EBOS Reporting Station
Broken Clouds Broken Clouds  
Wind Chill: 50°   Ceiling: 4000
Heat Index: 50°   Visibility: 5mi
Dew Point: 48°   Wind: 8mph
Humidity: 94%   Direction: 90°E
Pressure: 29.65"   Gusts: NA
Location:  51.18°N, 3°E
Report Text: EBOS 280120Z 09007KT 8000 FEW006 SCT014 BKN040 10/09 Q1004 TEMPO BKN006
Loading
Personal Weather Stations






























Interactive Weather Map New forecast layout! Learn more

10-Day Weather Forecast

Advertisements
Track Severe Weather on mobile